Time;durP1;ratioP1;P1;durP2;ratioP2;P2;SDS_P1;SDS_P2;PMS_P1;PMS_P2;Temp;Humidity;BMP_temperature;BMP_pressure;BME280_temperature;BME280_humidity;BME280_pressure;Samples;Min_cycle;Max_cycle;Signal;HPM_P1;HPM_P2
2021/03/07 00:00:13;;;;;;;34.88;17.67;;;;;;;-0.78;59.76;101624.66;5116896;27;20051;-76
2021/03/07 00:02:40;;;;;;;37.28;16.88;;;;;;;-0.83;59.96;101626.38;5135174;27;20393;-77
2021/03/07 00:05:06;;;;;;;37.72;18.63;;;;;;;-0.76;59.77;101604.59;5135121;27;20019;-76
2021/03/07 00:07:33;;;;;;;40.45;19.15;;;;;;;-0.93;60.26;101599.22;5099651;27;20034;-76
2021/03/07 00:09:58;;;;;;;42.75;20.00;;;;;;;-1.22;61.32;101575.41;5099421;27;20030;-75
2021/03/07 00:12:24;;;;;;;36.80;20.00;;;;;;;-1.26;60.98;101583.19;5135053;27;20027;-74
2021/03/07 00:14:50;;;;;;;44.45;20.27;;;;;;;-1.34;61.41;101575.31;5134483;27;20046;-74
2021/03/07 00:17:15;;;;;;;43.13;20.88;;;;;;;-1.49;61.19;101555.09;5116555;27;20362;-80
2021/03/07 00:19:41;;;;;;;45.25;20.75;;;;;;;-1.17;61.26;101594.63;5116583;27;20023;-79
2021/03/07 00:22:06;;;;;;;43.40;20.73;;;;;;;-1.26;61.33;101549.16;5135246;27;20019;-78
2021/03/07 00:24:32;;;;;;;41.33;19.90;;;;;;;-1.36;61.32;101527.28;5135074;27;20035;-80
2021/03/07 00:26:58;;;;;;;44.28;20.17;;;;;;;-1.00;61.42;101579.09;5134690;27;20027;-79
2021/03/07 00:29:23;;;;;;;46.88;20.05;;;;;;;-1.23;61.48;101542.25;5099599;27;20080;-79
2021/03/07 00:31:49;;;;;;;47.53;22.05;;;;;;;-0.90;61.46;101582.66;5099033;27;20030;-74
2021/03/07 00:34:15;;;;;;;52.58;24.40;;;;;;;-1.21;61.49;101558.84;5099235;27;20497;-74
2021/03/07 00:36:40;;;;;;;48.78;23.27;;;;;;;-1.08;61.68;101603.44;5115876;27;20051;-74
2021/03/07 00:39:06;;;;;;;38.30;19.60;;;;;;;-0.87;60.15;101606.25;5116124;27;20469;-73
2021/03/07 00:41:33;;;;;;;48.63;22.02;;;;;;;-0.94;59.71;101573.03;5134420;27;20034;-73
2021/03/07 00:43:58;;;;;;;44.92;20.92;;;;;;;-0.64;59.53;101604.69;5134131;27;20026;-73
2021/03/07 00:46:24;;;;;;;40.40;19.40;;;;;;;-0.60;58.50;101595.97;5134355;27;20027;-73
2021/03/07 00:48:49;;;;;;;37.15;19.75;;;;;;;-0.64;58.25;101585.47;5115591;27;20019;-73
2021/03/07 00:51:15;;;;;;;39.78;18.40;;;;;;;-0.64;58.27;101591.59;5116087;27;20056;-74
2021/03/07 00:53:41;;;;;;;41.10;19.17;;;;;;;-0.74;58.48;101589.78;5133983;27;20027;-79
2021/03/07 00:56:07;;;;;;;38.92;20.67;;;;;;;-0.75;58.66;101585.41;5115857;27;20027;-75
2021/03/07 00:58:32;;;;;;;44.85;20.52;;;;;;;-0.96;59.67;101566.91;5134209;27;20545;-74
2021/03/07 01:00:58;;;;;;;43.33;20.58;;;;;;;-0.75;58.51;101588.03;5133625;27;20191;-75
2021/03/07 01:03:23;;;;;;;45.42;19.92;;;;;;;-0.82;58.72;101575.72;5115852;27;20026;-73
2021/03/07 01:05:48;;;;;;;40.88;20.98;;;;;;;-1.05;59.96;101579.94;5133904;27;20105;-77
2021/03/07 01:08:14;;;;;;;38.45;20.25;;;;;;;-1.02;59.77;101580.81;5116185;27;20477;-78
2021/03/07 01:10:42;;;;;;;34.97;18.17;;;;;;;-0.98;59.18;101571.22;5134462;27;20459;-76
2021/03/07 01:13:13;;;;;;;36.95;18.27;;;;;;;-0.99;58.90;101562.50;5116287;27;20027;-78
2021/03/07 01:15:40;;;;;;;38.22;18.83;;;;;;;-1.16;59.81;101569.31;5115802;28;20118;-76
2021/03/07 01:18:06;;;;;;;37.15;18.27;;;;;;;-1.24;59.96;101545.72;5133735;27;20026;-75
2021/03/07 01:20:34;;;;;;;38.13;19.13;;;;;;;-1.11;59.40;101541.47;5115675;27;20122;-76
2021/03/07 01:23:00;;;;;;;40.63;19.02;;;;;;;-1.14;59.76;101561.50;5115208;27;20019;-74
2021/03/07 01:25:33;;;;;;;37.75;18.77;;;;;;;-1.44;61.08;101547.28;5115360;28;20027;-76
2021/03/07 01:28:01;;;;;;;37.38;19.02;;;;;;;-1.68;61.90;101534.81;5116720;28;20106;-76
2021/03/07 01:30:28;;;;;;;38.20;18.42;;;;;;;-1.54;61.61;101548.94;5134756;27;20434;-73
2021/03/07 01:32:54;;;;;;;36.25;17.15;;;;;;;-1.68;61.96;101528.72;5133415;28;20388;-74
2021/03/07 01:35:21;;;;;;;35.72;17.38;;;;;;;-1.58;62.29;101541.03;5117195;27;20023;-76
2021/03/07 01:37:46;;;;;;;34.13;17.60;;;;;;;-1.69;62.40;101532.19;5137883;27;20023;-77
2021/03/07 01:40:40;;;;;;;43.25;18.02;;;;;;;-1.68;62.21;101526.09;5102954;27;20050;-75
2021/03/07 01:43:14;;;;;;;35.42;17.30;;;;;;;-1.58;62.37;101534.06;5138197;27;20011;-77
2021/03/07 01:45:41;;;;;;;40.50;18.55;;;;;;;-1.55;61.93;101512.25;5119974;27;20061;-77
2021/03/07 01:48:10;;;;;;;40.30;19.65;;;;;;;-1.37;61.53;101533.38;5101749;27;20190;-74
2021/03/07 01:50:39;;;;;;;51.30;26.38;;;;;;;-1.27;61.21;101522.13;5137989;27;20030;-78
2021/03/07 01:53:05;;;;;;;53.75;25.77;;;;;;;-1.23;61.15;101523.91;5119362;27;20054;-73
2021/03/07 01:55:33;;;;;;;48.47;26.40;;;;;;;-1.33;61.62;101523.81;5119299;27;20038;-74
2021/03/07 01:58:03;;;;;;;52.03;26.27;;;;;;;-1.73;62.70;101506.03;5137301;27;20430;-75
2021/03/07 02:00:28;;;;;;;54.42;26.75;;;;;;;-1.95;63.53;101506.63;5137336;27;20092;-73
2021/03/07 02:02:55;;;;;;;52.72;25.70;;;;;;;-1.82;63.85;101511.16;5118746;27;20027;-72
2021/03/07 02:05:22;;;;;;;56.50;26.95;;;;;;;-1.81;63.45;101510.28;5101988;27;20399;-72
2021/03/07 02:07:48;;;;;;;56.13;26.65;;;;;;;-1.97;63.80;101502.25;5137039;27;20460;-74
2021/03/07 02:10:22;;;;;;;56.67;26.48;;;;;;;-2.07;64.23;101493.44;5137416;27;20537;-72
2021/03/07 02:12:50;;;;;;;53.17;25.88;;;;;;;-1.90;64.35;101514.53;5118499;27;20023;-72
2021/03/07 02:15:18;;;;;;;49.20;25.05;;;;;;;-1.93;64.06;101515.41;5137282;27;20025;-73
2021/03/07 02:17:44;;;;;;;50.42;24.92;;;;;;;-1.90;64.32;101507.56;5137253;27;20469;-72
2021/03/07 02:20:12;;;;;;;50.85;24.25;;;;;;;-1.94;64.47;101513.63;5136920;27;20029;-73
2021/03/07 02:22:52;;;;;;;56.67;25.95;;;;;;;-1.97;64.45;101510.97;5137028;27;20030;-73
2021/03/07 02:25:18;;;;;;;55.90;26.80;;;;;;;-1.97;64.46;101497.03;5137278;27;20031;-73
2021/03/07 02:27:45;;;;;;;60.15;27.33;;;;;;;-2.13;64.94;101490.75;5118646;27;20023;-74
2021/03/07 02:30:13;;;;;;;62.38;28.13;;;;;;;-1.87;64.28;101509.34;5136737;27;20023;-75
2021/03/07 02:32:49;;;;;;;49.22;25.92;;;;;;;-1.66;63.37;101492.97;5136806;27;20033;-74
2021/03/07 02:35:19;;;;;;;52.53;25.17;;;;;;;-1.90;63.15;101451.78;5137107;27;20027;-75
2021/03/07 02:37:50;;;;;;;52.85;23.70;;;;;;;-1.67;63.40;101491.22;5118594;27;20034;-74
2021/03/07 02:40:19;;;;;;;41.58;20.08;;;;;;;-1.77;63.29;101493.75;5118792;27;20023;-75
2021/03/07 02:42:47;;;;;;;40.10;21.45;;;;;;;-2.08;63.73;101469.03;5118350;27;20038;-74
2021/03/07 02:45:19;;;;;;;41.20;19.67;;;;;;;-2.07;63.96;101490.81;5136620;27;20030;-75
2021/03/07 02:47:47;;;;;;;42.72;21.38;;;;;;;-2.19;64.87;101490.69;5118673;27;20038;-74
2021/03/07 02:50:21;;;;;;;45.30;20.40;;;;;;;-2.30;65.32;101487.97;5136331;27;20023;-74
2021/03/07 02:52:52;;;;;;;45.45;20.60;;;;;;;-2.16;65.05;101493.34;5136531;27;20050;-74
2021/03/07 02:55:19;;;;;;;43.30;20.33;;;;;;;-2.31;65.71;101481.84;5137039;27;20058;-75
2021/03/07 02:57:47;;;;;;;41.90;20.13;;;;;;;-2.10;64.70;101475.13;5118264;27;20035;-75
2021/03/07 03:00:13;;;;;;;44.40;20.40;;;;;;;-2.00;63.88;101471.72;5117601;27;20075;-76
2021/03/07 03:02:41;;;;;;;42.50;20.00;;;;;;;-2.06;64.22;101474.28;5136461;27;20065;-75
2021/03/07 03:05:09;;;;;;;42.15;19.13;;;;;;;-1.93;64.04;101489.25;5117990;27;20484;-75
2021/03/07 03:07:36;;;;;;;42.17;20.45;;;;;;;-2.00;64.05;101492.66;5136316;27;20462;-75
2021/03/07 03:10:04;;;;;;;45.53;21.13;;;;;;;-2.14;64.58;101481.16;5117907;27;20071;-76
2021/03/07 03:12:33;;;;;;;50.13;21.90;;;;;;;-2.06;64.32;101484.72;5136165;27;20031;-74
2021/03/07 03:14:59;;;;;;;51.28;23.90;;;;;;;-1.99;63.75;101470.88;5135817;27;20019;-74
2021/03/07 03:17:25;;;;;;;45.33;21.98;;;;;;;-1.88;63.42;101476.19;5117942;27;20038;-74
2021/03/07 03:19:53;;;;;;;49.42;23.50;;;;;;;-2.13;63.50;101449.78;5117430;27;20102;-76
2021/03/07 03:22:19;;;;;;;53.35;24.42;;;;;;;-1.84;63.25;101478.84;5136004;27;20038;-76
2021/03/07 03:24:45;;;;;;;57.85;26.15;;;;;;;-2.05;63.66;101489.09;5117608;27;20469;-74
2021/03/07 03:27:11;;;;;;;56.47;26.52;;;;;;;-2.22;63.83;101475.88;5135697;27;20413;-74
2021/03/07 03:29:38;;;;;;;63.70;27.33;;;;;;;-2.20;63.90;101474.13;5117378;27;20480;-74
2021/03/07 03:32:04;;;;;;;60.72;27.23;;;;;;;-2.33;64.39;101473.09;5117146;27;20076;-74
2021/03/07 03:34:30;;;;;;;60.55;25.83;;;;;;;-2.45;65.25;101466.84;5135693;27;20392;-74
2021/03/07 03:36:56;;;;;;;61.17;25.45;;;;;;;-2.52;65.36;101476.34;5135320;27;20023;-74
2021/03/07 03:39:25;;;;;;;57.92;25.88;;;;;;;-2.56;65.35;101448.44;5117371;27;20485;-74
2021/03/07 03:41:54;;;;;;;53.70;24.58;;;;;;;-2.38;64.43;101458.25;5117047;27;20084;-78
2021/03/07 03:44:23;;;;;;;56.72;25.40;;;;;;;-2.38;64.37;101459.13;5135835;27;20047;-76
2021/03/07 03:46:53;;;;;;;55.60;24.85;;;;;;;-2.34;64.96;101468.72;5135587;27;20019;-75
2021/03/07 03:49:30;;;;;;;48.70;23.58;;;;;;;-2.51;65.63;101470.28;5135720;27;20095;-76
2021/03/07 03:52:01;;;;;;;54.25;24.40;;;;;;;-2.59;65.96;101469.31;5135576;27;20084;-76
2021/03/07 03:54:30;;;;;;;55.20;25.98;;;;;;;-2.63;66.07;101472.72;5135364;27;20047;-75
2021/03/07 03:56:58;;;;;;;53.33;25.05;;;;;;;-2.56;65.82;101476.28;5135312;27;20042;-77
2021/03/07 03:59:27;;;;;;;50.53;25.05;;;;;;;-2.51;65.48;101480.75;5116376;27;20019;-75
2021/03/07 04:01:53;;;;;;;55.50;23.67;;;;;;;-2.42;64.85;101467.75;5116877;27;20019;-77
2021/03/07 04:04:20;;;;;;;47.15;23.95;;;;;;;-2.45;64.70;101461.63;5117436;27;20015;-77
2021/03/07 04:06:48;;;;;;;50.22;24.13;;;;;;;-2.48;64.87;101462.47;5117233;27;20035;-76
2021/03/07 04:09:15;;;;;;;51.10;25.35;;;;;;;-2.59;64.95;101479.75;5117033;27;20031;-78
2021/03/07 04:11:40;;;;;;;54.13;24.90;;;;;;;-2.78;66.37;101469.91;5135601;27;20415;-78
2021/03/07 04:14:06;;;;;;;54.40;24.95;;;;;;;-2.89;66.41;101469.78;5134966;27;20076;-77
2021/03/07 04:16:33;;;;;;;49.72;23.92;;;;;;;-2.83;66.84;101462.00;5117062;27;20035;-77
2021/03/07 04:18:59;;;;;;;51.08;23.80;;;;;;;-2.87;66.76;101455.00;5134794;27;20037;-72
2021/03/07 04:21:25;;;;;;;58.42;24.80;;;;;;;-2.79;66.99;101465.56;5134695;27;20031;-72
2021/03/07 04:23:50;;;;;;;48.55;25.27;;;;;;;-2.89;66.74;101443.66;5099438;27;20019;-72
2021/03/07 04:26:17;;;;;;;51.83;24.88;;;;;;;-2.76;66.49;101460.38;5134516;27;20501;-73
2021/03/07 04:28:43;;;;;;;47.55;24.70;;;;;;;-2.74;66.64;101456.03;5134665;27;20023;-72
2021/03/07 04:31:09;;;;;;;49.78;23.25;;;;;;;-2.82;66.29;101449.84;5134357;27;20060;-72
2021/03/07 04:33:36;;;;;;;50.60;23.85;;;;;;;-2.85;66.37;101458.50;5134552;27;20039;-72
2021/03/07 04:36:04;;;;;;;51.08;24.20;;;;;;;-2.76;66.13;101458.63;5134434;27;20027;-76
2021/03/07 04:38:31;;;;;;;52.60;23.90;;;;;;;-2.78;65.86;101465.56;5134643;27;20027;-74
2021/03/07 04:40:57;;;;;;;47.10;23.65;;;;;;;-2.68;65.60;101457.00;5115887;27;20062;-77
2021/03/07 04:43:23;;;;;;;47.03;24.10;;;;;;;-2.52;64.93;101446.72;5134574;27;20019;-74
2021/03/07 04:45:49;;;;;;;47.55;24.10;;;;;;;-2.62;65.11;101458.78;5134545;27;20027;-74
2021/03/07 04:48:15;;;;;;;49.17;24.52;;;;;;;-2.62;65.51;101454.44;5118922;27;20035;-73
2021/03/07 04:50:40;;;;;;;46.45;24.50;;;;;;;-2.71;65.50;101453.44;5136729;27;20026;-74
2021/03/07 04:53:06;;;;;;;50.20;24.30;;;;;;;-3.15;65.91;101404.16;5134080;27;20027;-75
2021/03/07 04:55:32;;;;;;;50.60;25.00;;;;;;;-2.93;66.17;101447.94;5116053;27;20466;-75
2021/03/07 04:57:57;;;;;;;47.17;23.65;;;;;;;-2.86;65.90;101442.81;5115638;27;20135;-77
2021/03/07 05:00:23;;;;;;;48.67;25.08;;;;;;;-3.00;66.21;101440.00;5133984;27;20408;-76
2021/03/07 05:02:49;;;;;;;53.22;25.90;;;;;;;-3.07;66.23;101444.28;5098946;27;20027;-74
2021/03/07 05:05:15;;;;;;;55.70;26.20;;;;;;;-3.15;66.97;101448.50;5115343;27;20110;-75
2021/03/07 05:07:40;;;;;;;48.53;24.92;;;;;;;-3.24;67.05;101443.16;5134094;27;20034;-75
2021/03/07 05:10:07;;;;;;;55.40;25.08;;;;;;;-3.19;67.10;101449.31;5115288;27;20027;-76
2021/03/07 05:12:33;;;;;;;59.20;25.23;;;;;;;-2.99;66.51;101453.09;5115609;27;20023;-74
2021/03/07 05:14:58;;;;;;;57.80;25.45;;;;;;;-3.33;65.88;101377.78;5098285;28;20034;-78
2021/03/07 05:17:24;;;;;;;55.38;25.75;;;;;;;-3.20;65.59;101400.56;5098631;27;20103;-77
2021/03/07 05:19:51;;;;;;;50.70;24.88;;;;;;;-3.25;65.77;101402.25;5115765;27;20469;-77
2021/03/07 05:22:17;;;;;;;53.95;24.08;;;;;;;-3.35;65.94;101377.78;5115535;28;20062;-77
2021/03/07 05:24:44;;;;;;;48.40;23.65;;;;;;;-3.12;65.97;101430.28;5082094;27;20042;-76
2021/03/07 05:27:09;;;;;;;55.78;24.30;;;;;;;-3.51;67.00;101389.69;5098134;27;20083;-76
2021/03/07 05:29:36;;;;;;;52.88;23.80;;;;;;;-3.63;67.20;101373.88;5115639;28;20023;-76
2021/03/07 05:32:02;;;;;;;52.17;24.70;;;;;;;-3.42;67.57;101420.25;5133654;28;20026;-78
2021/03/07 05:34:28;;;;;;;54.60;24.73;;;;;;;-3.25;67.63;101433.56;5134069;28;20030;-78
2021/03/07 05:36:54;;;;;;;46.88;23.13;;;;;;;-3.13;67.01;101418.09;5115544;28;20031;-76
2021/03/07 05:39:20;;;;;;;50.22;24.42;;;;;;;-3.19;67.05;101418.88;5115434;28;20041;-76
2021/03/07 05:41:46;;;;;;;46.58;23.50;;;;;;;-3.26;67.39;101413.56;5133789;28;20022;-75
2021/03/07 05:44:12;;;;;;;46.08;23.80;;;;;;;-3.21;67.06;101409.25;5115287;28;20025;-78
2021/03/07 05:46:38;;;;;;;51.83;24.42;;;;;;;-3.20;67.34;101405.78;5115330;28;20038;-76
2021/03/07 05:49:05;;;;;;;44.58;23.38;;;;;;;-2.99;66.46;101408.72;5114959;28;20037;-77
2021/03/07 05:51:31;;;;;;;47.53;23.77;;;;;;;-2.85;66.26;101418.47;5115768;28;20027;-76
2021/03/07 05:53:57;;;;;;;46.53;22.33;;;;;;;-2.87;66.24;101410.63;5098306;28;20099;-75
2021/03/07 05:56:22;;;;;;;49.55;24.88;;;;;;;-2.99;66.68;101411.34;5133364;28;20035;-74
2021/03/07 05:58:50;;;;;;;52.25;24.77;;;;;;;-3.19;67.16;101379.72;5098155;28;20397;-74
2021/03/07 06:01:19;;;;;;;48.72;24.33;;;;;;;-2.83;66.79;101386.28;5114591;28;20061;-73
2021/03/07 06:03:45;;;;;;;45.00;22.38;;;;;;;-2.70;66.63;101402.97;5133457;28;20023;-72
2021/03/07 06:06:10;;;;;;;42.47;22.20;;;;;;;-2.61;66.14;101408.31;5114913;28;20046;-72
2021/03/07 06:08:36;;;;;;;42.90;21.42;;;;;;;-2.50;65.61;101400.63;5133661;28;20485;-71
2021/03/07 06:11:03;;;;;;;41.60;21.13;;;;;;;-2.50;66.45;101411.06;5133416;28;20031;-72
2021/03/07 06:13:39;;;;;;;41.15;21.05;;;;;;;-2.47;65.87;101406.75;5115191;28;20034;-71
2021/03/07 06:16:07;;;;;;;38.63;20.00;;;;;;;-2.42;66.18;101410.28;5133013;28;20062;-73
2021/03/07 06:18:40;;;;;;;43.50;21.67;;;;;;;-2.45;66.22;101407.63;5114882;28;20106;-72
2021/03/07 06:21:34;;;;;;;43.97;22.37;;;;;;;-2.37;66.02;101407.72;5115686;27;20021;-73
2021/03/07 06:24:02;;;;;;;38.70;21.23;;;;;;;-1.95;64.74;101402.03;5118798;27;20476;-73
2021/03/07 06:26:27;;;;;;;42.92;20.73;;;;;;;-1.80;64.43;101407.41;5118737;27;20031;-73
2021/03/07 06:29:10;;;;;;;42.58;21.17;;;;;;;-1.66;63.78;101404.03;5118791;27;20100;-72
2021/03/07 06:31:36;;;;;;;43.67;20.73;;;;;;;-1.65;63.68;101400.53;5137306;27;20477;-73
2021/03/07 06:34:03;;;;;;;40.22;20.88;;;;;;;-1.58;63.94;101399.72;5136879;27;20034;-72
2021/03/07 06:36:29;;;;;;;45.22;20.35;;;;;;;-1.56;63.89;101395.38;5136835;27;20034;-74
2021/03/07 06:39:00;;;;;;;42.92;20.90;;;;;;;-1.60;64.10;101384.03;5136839;27;20491;-74
2021/03/07 06:41:31;;;;;;;38.17;19.85;;;;;;;-1.57;63.85;101372.69;5118412;27;20130;-74
2021/03/07 06:44:14;;;;;;;42.08;20.50;;;;;;;-1.47;64.04;101395.44;5136756;27;20044;-73
2021/03/07 06:46:45;;;;;;;39.58;20.38;;;;;;;-1.31;63.87;101386.84;5136779;27;20027;-75
2021/03/07 06:49:30;;;;;;;39.78;20.13;;;;;;;-1.30;63.63;101380.75;5118243;27;20027;-75
2021/03/07 06:52:18;;;;;;;39.33;19.23;;;;;;;-1.16;63.76;101391.28;5136065;27;20039;-73
2021/03/07 06:55:13;;;;;;;37.58;17.77;;;;;;;-1.07;63.63;101399.19;5118140;27;20503;-74
2021/03/07 06:57:39;;;;;;;31.05;16.58;;;;;;;-1.03;63.47;101395.75;5136512;27;20023;-75
2021/03/07 07:00:06;;;;;;;31.00;16.02;;;;;;;-0.83;62.51;101387.97;5136367;27;20074;-75
2021/03/07 07:02:31;;;;;;;29.75;15.02;;;;;;;-0.81;62.00;101373.13;5136252;27;20058;-75
2021/03/07 07:04:57;;;;;;;29.17;15.27;;;;;;;-0.68;61.36;101385.41;5136384;27;20051;-71
2021/03/07 07:07:23;;;;;;;25.70;14.05;;;;;;;-0.40;59.61;101375.00;5136045;27;20027;-71
2021/03/07 07:09:58;;;;;;;25.55;12.90;;;;;;;-0.39;59.01;101372.38;5117863;27;20027;-71
2021/03/07 07:12:29;;;;;;;25.75;13.45;;;;;;;-0.36;58.74;101374.16;5135782;27;20031;-74
2021/03/07 07:15:12;;;;;;;20.80;12.20;;;;;;;-0.38;58.46;101368.06;5136375;27;20031;-74
2021/03/07 07:17:38;;;;;;;22.75;12.45;;;;;;;-0.43;58.35;101365.41;5137456;27;20083;-74
2021/03/07 07:20:09;;;;;;;27.08;12.45;;;;;;;-0.32;58.45;101368.91;5119671;27;20111;-74
2021/03/07 07:22:35;;;;;;;26.42;12.85;;;;;;;-0.28;58.53;101367.19;5119210;27;20485;-74
2021/03/07 07:25:03;;;;;;;24.00;12.88;;;;;;;-0.20;58.50;101365.44;5137610;27;20481;-73
2021/03/07 07:27:28;;;;;;;22.90;11.80;;;;;;;0.06;57.42;101364.59;5119575;27;20031;-72
2021/03/07 07:29:54;;;;;;;24.35;12.68;;;;;;;-0.03;57.33;101363.72;5118914;27;20109;-72
2021/03/07 07:32:41;;;;;;;23.60;12.50;;;;;;;0.05;57.20;101365.47;5116585;28;20096;-74
2021/03/07 07:35:16;;;;;;;24.10;12.90;;;;;;;0.13;57.14;101355.84;5135883;27;20027;-76
2021/03/07 07:38:01;;;;;;;23.60;12.43;;;;;;;0.20;56.70;101355.88;5135851;27;20047;-72
2021/03/07 07:40:44;;;;;;;25.95;13.93;;;;;;;0.25;56.22;101355.84;5117022;27;20023;-72
2021/03/07 07:43:10;;;;;;;25.70;14.07;;;;;;;0.23;56.64;101357.59;5117220;27;20019;-77
2021/03/07 07:45:38;;;;;;;27.77;13.98;;;;;;;0.32;56.44;101341.84;5135814;27;20058;-75
2021/03/07 07:48:04;;;;;;;24.95;13.98;;;;;;;0.31;56.35;101329.63;5135523;27;20161;-74
2021/03/07 07:50:34;;;;;;;25.85;13.95;;;;;;;0.45;56.02;101354.06;5135349;27;20087;-73
2021/03/07 07:53:12;;;;;;;26.48;13.55;;;;;;;0.50;56.73;101354.09;5135506;27;20430;-71
2021/03/07 07:55:52;;;;;;;29.50;14.43;;;;;;;0.62;56.49;101345.31;5135304;27;20050;-71
2021/03/07 07:58:40;;;;;;;30.75;14.90;;;;;;;0.81;55.77;101344.38;5135105;27;20382;-73
2021/03/07 08:01:13;;;;;;;23.02;13.93;;;;;;;0.89;54.62;101333.88;5135418;27;20057;-75
2021/03/07 08:03:41;;;;;;;;;;;;;;;0.97;54.21;101335.59;5104414;28;20034;-70
2021/03/07 08:06:08;;;;;;;25.17;12.35;;;;;;;1.08;54.33;101332.91;5114574;28;20004;-71
2021/03/07 08:08:41;;;;;;;25.80;12.73;;;;;;;1.19;53.68;101324.97;5096470;28;20046;-75
2021/03/07 08:11:29;;;;;;;26.33;12.75;;;;;;;1.20;53.37;101326.72;5115029;28;20409;-71
2021/03/07 08:13:56;;;;;;;22.33;12.60;;;;;;;1.20;53.70;101316.22;5115146;28;20106;-73
2021/03/07 08:16:44;;;;;;;21.75;11.68;;;;;;;1.59;52.11;101313.34;5096066;28;20465;-78
2021/03/07 08:19:15;;;;;;;22.30;11.90;;;;;;;1.66;52.01;101308.94;5114573;28;20105;-71
2021/03/07 08:22:04;;;;;;;20.83;11.40;;;;;;;1.88;51.47;101314.91;5114518;28;20039;-75
2021/03/07 08:24:47;;;;;;;20.15;11.02;;;;;;;1.91;51.64;101307.84;5114270;28;20106;-75
2021/03/07 08:27:31;;;;;;;17.45;8.57;;;;;;;2.21;49.62;101314.59;5114351;28;20050;-76
2021/03/07 08:29:57;;;;;;;20.85;9.80;;;;;;;2.27;49.38;101296.13;5095857;28;20081;-73
2021/03/07 08:32:40;;;;;;;17.75;8.98;;;;;;;2.51;48.56;101297.66;5113669;28;20084;-72
2021/03/07 08:35:11;;;;;;;15.52;9.15;;;;;;;2.62;48.04;101294.91;5095748;28;20034;-71
2021/03/07 08:37:37;;;;;;;16.50;9.07;;;;;;;2.63;47.63;101286.13;5113696;28;20028;-71
2021/03/07 08:40:33;;;;;;;16.73;9.25;;;;;;;2.78;48.19;101291.19;5113934;28;20024;-71
2021/03/07 08:43:22;;;;;;;18.92;10.13;;;;;;;2.81;48.10;101278.00;5094498;28;20481;-73
2021/03/07 08:46:03;;;;;;;18.45;11.00;;;;;;;2.90;47.82;101284.06;5100196;28;20482;-70
2021/03/07 08:48:30;;;;;;;20.65;10.13;;;;;;;2.97;47.85;101286.56;5095955;28;20042;-73
2021/03/07 08:50:57;;;;;;;20.23;11.45;;;;;;;2.93;47.79;101284.88;5113768;28;20101;-71
2021/03/07 08:53:24;;;;;;;21.25;11.38;;;;;;;2.88;48.67;101274.38;5113466;28;20470;-75
2021/03/07 08:55:50;;;;;;;18.98;10.73;;;;;;;2.96;47.99;101278.69;5113974;28;20033;-76
2021/03/07 08:58:16;;;;;;;20.38;10.88;;;;;;;3.02;47.95;101266.31;5095303;28;20526;-79
2021/03/07 09:00:46;;;;;;;20.50;10.43;;;;;;;3.09;48.21;101259.22;5114058;28;20070;-82
2021/03/07 09:03:16;;;;;;;22.08;10.27;;;;;;;3.14;48.10;101270.53;5095552;28;20035;-78
2021/03/07 09:05:42;;;;;;;21.35;10.68;;;;;;;3.23;47.72;101259.00;5096089;28;20031;-70
2021/03/07 09:08:07;;;;;;;17.40;9.60;;;;;;;3.31;47.54;101260.66;5113612;28;20019;-70
2021/03/07 09:10:35;;;;;;;15.98;9.23;;;;;;;3.37;47.06;101254.38;5094876;28;20046;-70
2021/03/07 09:13:18;;;;;;;19.20;10.05;;;;;;;3.47;46.71;101249.84;5113197;28;20027;-71
2021/03/07 09:15:56;;;;;;;20.00;9.95;;;;;;;3.43;47.02;101247.25;5113597;28;20026;-69
2021/03/07 09:18:27;;;;;;;19.45;10.55;;;;;;;3.42;47.54;101242.88;5094567;28;20031;-71
2021/03/07 09:21:09;;;;;;;15.15;8.13;;;;;;;3.69;45.17;101240.72;5113281;28;20051;-70
2021/03/07 09:23:40;;;;;;;16.23;6.60;;;;;;;3.99;41.95;101229.66;5112958;28;20093;-71
2021/03/07 09:26:11;;;;;;;9.25;5.57;;;;;;;4.40;40.24;101221.84;5113351;28;20031;-71
2021/03/07 09:28:41;;;;;;;11.32;5.78;;;;;;;4.47;39.63;101221.72;5112788;28;20390;-68
2021/03/07 09:31:14;;;;;;;11.52;5.40;;;;;;;4.48;40.40;101220.81;5113142;28;20055;-70
2021/03/07 09:33:47;;;;;;;11.50;5.38;;;;;;;4.34;38.98;101193.78;5112745;28;20016;-70
2021/03/07 09:36:13;;;;;;;9.38;5.43;;;;;;;4.55;39.29;101203.06;5113197;28;20532;-70
2021/03/07 09:38:53;;;;;;;9.75;5.32;;;;;;;4.60;39.08;101207.34;5114997;28;20031;-69
2021/03/07 09:41:32;;;;;;;8.38;4.90;;;;;;;4.58;38.36;101203.00;5123713;28;20911;-71
2021/03/07 09:44:10;;;;;;;6.72;4.35;;;;;;;4.58;37.22;101193.28;5133517;28;20043;-71
2021/03/07 09:46:36;;;;;;;7.47;3.35;;;;;;;4.66;37.98;101179.94;5132997;27;20023;-71
2021/03/07 09:49:07;;;;;;;10.90;5.43;;;;;;;4.64;37.82;101183.50;5133159;28;20087;-69
2021/03/07 09:51:37;;;;;;;8.38;4.20;;;;;;;4.70;37.26;101191.28;5114640;28;20031;-70
2021/03/07 09:54:14;;;;;;;17.73;5.82;;;;;;;4.69;38.98;101179.84;5133042;28;20033;-72
2021/03/07 09:56:41;;;;;;;8.15;4.85;;;;;;;4.70;38.29;101186.88;5099700;27;20035;-70
2021/03/07 09:59:17;;;;;;;10.55;5.68;;;;;;;4.76;39.66;101175.31;5137239;27;20500;-71
2021/03/07 10:01:50;;;;;;;10.27;5.80;;;;;;;4.77;40.10;101177.06;5137166;27;20408;-72
2021/03/07 10:04:31;;;;;;;11.68;5.88;;;;;;;4.86;39.59;101169.78;5137310;27;20027;-70
2021/03/07 10:06:58;;;;;;;11.70;6.05;;;;;;;4.90;40.28;101170.56;5136946;27;20042;-70
2021/03/07 10:09:23;;;;;;;12.95;6.75;;;;;;;4.82;40.14;101151.38;5118638;27;20029;-71
2021/03/07 10:12:02;;;;;;;11.57;6.13;;;;;;;4.93;40.09;101159.97;5137472;27;20350;-73
2021/03/07 10:14:31;;;;;;;10.70;5.75;;;;;;;5.05;39.46;101159.66;5137723;27;20042;-68
2021/03/07 10:16:58;;;;;;;9.93;5.35;;;;;;;5.15;39.38;101155.91;5118663;27;20028;-74
2021/03/07 10:19:34;;;;;;;10.25;5.65;;;;;;;5.15;38.10;101147.97;5119052;27;20122;-70
2021/03/07 10:22:03;;;;;;;10.75;5.65;;;;;;;5.10;38.22;101152.47;5136964;27;20123;-71
2021/03/07 10:24:30;;;;;;;10.05;5.40;;;;;;;5.25;38.39;101147.75;5136308;27;20021;-71
2021/03/07 10:27:04;;;;;;;10.23;5.65;;;;;;;5.34;37.96;101150.19;5137014;27;20380;-79
2021/03/07 10:29:32;;;;;;;13.30;7.28;;;;;;;5.37;36.94;101142.16;5137167;27;20330;-70
2021/03/07 10:32:11;;;;;;;9.15;5.72;;;;;;;5.34;36.07;101142.25;5136806;27;20354;-74
2021/03/07 10:34:39;;;;;;;8.57;4.63;;;;;;;5.32;35.80;101133.47;5136758;27;20160;-71
2021/03/07 10:37:05;;;;;;;9.13;4.80;;;;;;;5.18;35.69;101116.16;5136744;27;20388;-69
2021/03/07 10:39:31;;;;;;;6.78;4.13;;;;;;;5.57;34.48;101112.53;5101597;27;20034;-69
2021/03/07 10:42:12;;;;;;;8.52;4.53;;;;;;;5.55;34.16;101120.53;5118673;27;20031;-70
2021/03/07 10:44:40;;;;;;;9.15;4.28;;;;;;;5.56;33.75;101116.97;5136674;27;20466;-69
2021/03/07 10:47:18;;;;;;;11.77;4.63;;;;;;;5.64;33.29;101103.53;5136407;27;20055;-70
2021/03/07 10:49:49;;;;;;;8.05;4.57;;;;;;;5.70;33.57;101111.34;5136665;27;20026;-71
2021/03/07 10:52:15;;;;;;;9.88;4.60;;;;;;;5.70;33.66;101103.41;5136371;27;20465;-71
2021/03/07 10:54:41;;;;;;;9.05;4.50;;;;;;;5.67;33.51;101091.09;5136585;27;20110;-71
2021/03/07 10:57:10;;;;;;;7.38;4.47;;;;;;;5.73;33.38;101085.63;5136227;27;20452;-71
2021/03/07 10:59:37;;;;;;;8.95;5.05;;;;;;;5.88;32.34;101083.47;5136357;27;20027;-70
2021/03/07 11:02:08;;;;;;;7.53;4.15;;;;;;;5.80;32.50;101078.41;5136159;27;20033;-71
2021/03/07 11:04:34;;;;;;;6.97;3.45;;;;;;;5.79;32.04;101062.53;5136345;27;20053;-70
2021/03/07 11:06:59;;;;;;;8.50;3.95;;;;;;;5.81;32.12;101066.03;5136220;27;20385;-69
2021/03/07 11:09:25;;;;;;;8.77;3.90;;;;;;;5.80;32.11;101064.31;5136117;27;20030;-70
2021/03/07 11:11:50;;;;;;;8.73;4.00;;;;;;;5.74;32.25;101058.25;5136308;27;20489;-70
2021/03/07 11:14:16;;;;;;;8.68;4.32;;;;;;;5.79;32.56;101033.41;5135823;27;20019;-70
2021/03/07 11:16:41;;;;;;;6.75;3.95;;;;;;;5.86;32.45;101035.84;5118018;27;20033;-70
2021/03/07 11:19:07;;;;;;;8.20;4.43;;;;;;;5.77;33.08;101028.16;5117402;27;20058;-71
2021/03/07 11:21:33;;;;;;;7.85;4.65;;;;;;;5.83;33.64;101030.66;5100701;27;20093;-70
2021/03/07 11:23:58;;;;;;;8.48;4.70;;;;;;;5.84;34.21;101020.94;5136037;27;20102;-70